sensor_id;sensor_type;location;lat;lon;timestamp;P1;durP1;ratioP1;P2;durP2;ratioP2
75009;SDS011;63564;46.840;18.336;2023-07-29T00:00:11;5.87;;;3.43;;
75009;SDS011;63564;46.840;18.336;2023-07-29T00:03:12;5.90;;;3.58;;
75009;SDS011;63564;46.840;18.336;2023-07-29T00:06:13;6.27;;;3.50;;
75009;SDS011;63564;46.840;18.336;2023-07-29T00:09:13;5.73;;;3.23;;
75009;SDS011;63564;46.840;18.336;2023-07-29T00:12:13;7.17;;;3.50;;
75009;SDS011;63564;46.840;18.336;2023-07-29T00:15:14;6.60;;;3.60;;
75009;SDS011;63564;46.840;18.336;2023-07-29T00:18:14;6.72;;;3.65;;
75009;SDS011;63564;46.840;18.336;2023-07-29T00:21:14;6.40;;;3.60;;
75009;SDS011;63564;46.840;18.336;2023-07-29T00:24:15;6.57;;;3.30;;
75009;SDS011;63564;46.840;18.336;2023-07-29T00:27:15;7.20;;;3.87;;
75009;SDS011;63564;46.840;18.336;2023-07-29T00:30:16;6.57;;;3.77;;
75009;SDS011;63564;46.840;18.336;2023-07-29T00:33:16;7.20;;;3.70;;
75009;SDS011;63564;46.840;18.336;2023-07-29T00:36:17;7.13;;;3.35;;
75009;SDS011;63564;46.840;18.336;2023-07-29T00:39:17;6.53;;;3.40;;
75009;SDS011;63564;46.840;18.336;2023-07-29T00:42:19;8.50;;;3.80;;
75009;SDS011;63564;46.840;18.336;2023-07-29T00:45:19;6.80;;;3.60;;
75009;SDS011;63564;46.840;18.336;2023-07-29T00:48:20;6.33;;;3.43;;
75009;SDS011;63564;46.840;18.336;2023-07-29T00:51:20;8.13;;;3.73;;
75009;SDS011;63564;46.840;18.336;2023-07-29T00:54:21;6.32;;;3.97;;
75009;SDS011;63564;46.840;18.336;2023-07-29T00:57:22;8.40;;;3.93;;
75009;SDS011;63564;46.840;18.336;2023-07-29T01:00:25;8.65;;;4.15;;
75009;SDS011;63564;46.840;18.336;2023-07-29T01:03:25;6.80;;;4.10;;
75009;SDS011;63564;46.840;18.336;2023-07-29T01:06:44;7.25;;;3.95;;
75009;SDS011;63564;46.840;18.336;2023-07-29T01:10:00;6.30;;;3.70;;
75009;SDS011;63564;46.840;18.336;2023-07-29T01:16:23;7.33;;;4.10;;
75009;SDS011;63564;46.840;18.336;2023-07-29T01:22:39;7.03;;;3.58;;
75009;SDS011;63564;46.840;18.336;2023-07-29T01:25:40;7.73;;;3.80;;
75009;SDS011;63564;46.840;18.336;2023-07-29T01:28:40;10.23;;;4.00;;
75009;SDS011;63564;46.840;18.336;2023-07-29T01:31:43;7.10;;;4.13;;
75009;SDS011;63564;46.840;18.336;2023-07-29T01:34:56;7.57;;;4.30;;
75009;SDS011;63564;46.840;18.336;2023-07-29T01:38:19;7.60;;;4.03;;
75009;SDS011;63564;46.840;18.336;2023-07-29T01:41:22;7.22;;;3.88;;
75009;SDS011;63564;46.840;18.336;2023-07-29T01:44:24;8.15;;;3.85;;
75009;SDS011;63564;46.840;18.336;2023-07-29T01:47:26;6.93;;;4.10;;
75009;SDS011;63564;46.840;18.336;2023-07-29T01:50:26;7.27;;;4.17;;
75009;SDS011;63564;46.840;18.336;2023-07-29T01:53:26;7.00;;;4.13;;
75009;SDS011;63564;46.840;18.336;2023-07-29T01:56:27;6.40;;;4.00;;
75009;SDS011;63564;46.840;18.336;2023-07-29T01:59:27;8.57;;;4.27;;
75009;SDS011;63564;46.840;18.336;2023-07-29T02:02:28;7.50;;;4.10;;
75009;SDS011;63564;46.840;18.336;2023-07-29T02:05:28;7.57;;;4.10;;
75009;SDS011;63564;46.840;18.336;2023-07-29T02:08:28;6.80;;;4.10;;
75009;SDS011;63564;46.840;18.336;2023-07-29T02:11:29;7.27;;;4.40;;
75009;SDS011;63564;46.840;18.336;2023-07-29T02:14:29;6.73;;;3.87;;
75009;SDS011;63564;46.840;18.336;2023-07-29T02:17:30;7.70;;;4.23;;
75009;SDS011;63564;46.840;18.336;2023-07-29T02:20:31;6.75;;;4.07;;
75009;SDS011;63564;46.840;18.336;2023-07-29T02:23:31;7.20;;;3.70;;
75009;SDS011;63564;46.840;18.336;2023-07-29T02:26:31;7.33;;;4.03;;
75009;SDS011;63564;46.840;18.336;2023-07-29T02:29:32;7.00;;;4.30;;
75009;SDS011;63564;46.840;18.336;2023-07-29T02:32:33;7.80;;;4.18;;
75009;SDS011;63564;46.840;18.336;2023-07-29T02:35:33;6.77;;;4.17;;
75009;SDS011;63564;46.840;18.336;2023-07-29T02:38:33;7.60;;;3.83;;
75009;SDS011;63564;46.840;18.336;2023-07-29T02:41:34;6.60;;;4.10;;
75009;SDS011;63564;46.840;18.336;2023-07-29T02:44:34;7.93;;;4.15;;
75009;SDS011;63564;46.840;18.336;2023-07-29T02:47:35;7.70;;;4.10;;
75009;SDS011;63564;46.840;18.336;2023-07-29T02:50:36;8.30;;;4.47;;
75009;SDS011;63564;46.840;18.336;2023-07-29T02:53:37;8.38;;;4.20;;
75009;SDS011;63564;46.840;18.336;2023-07-29T02:56:37;7.77;;;4.60;;
75009;SDS011;63564;46.840;18.336;2023-07-29T02:59:38;7.40;;;4.30;;
75009;SDS011;63564;46.840;18.336;2023-07-29T03:02:39;7.90;;;4.45;;
75009;SDS011;63564;46.840;18.336;2023-07-29T03:05:39;7.53;;;4.23;;
75009;SDS011;63564;46.840;18.336;2023-07-29T03:08:39;8.43;;;4.43;;
75009;SDS011;63564;46.840;18.336;2023-07-29T03:11:40;7.93;;;4.83;;
75009;SDS011;63564;46.840;18.336;2023-07-29T03:14:40;8.60;;;5.37;;
75009;SDS011;63564;46.840;18.336;2023-07-29T03:17:41;9.30;;;6.00;;
75009;SDS011;63564;46.840;18.336;2023-07-29T03:20:42;9.93;;;5.90;;
75009;SDS011;63564;46.840;18.336;2023-07-29T03:23:42;9.38;;;5.53;;
75009;SDS011;63564;46.840;18.336;2023-07-29T03:26:43;8.10;;;5.20;;
75009;SDS011;63564;46.840;18.336;2023-07-29T03:29:43;8.90;;;5.10;;
75009;SDS011;63564;46.840;18.336;2023-07-29T03:32:44;8.50;;;5.30;;
75009;SDS011;63564;46.840;18.336;2023-07-29T03:35:47;8.45;;;5.38;;
75009;SDS011;63564;46.840;18.336;2023-07-29T03:38:47;10.57;;;5.10;;
75009;SDS011;63564;46.840;18.336;2023-07-29T03:41:48;10.77;;;5.30;;
75009;SDS011;63564;46.840;18.336;2023-07-29T03:44:48;8.63;;;4.95;;
75009;SDS011;63564;46.840;18.336;2023-07-29T03:47:49;8.77;;;5.00;;
75009;SDS011;63564;46.840;18.336;2023-07-29T03:50:49;8.77;;;4.90;;
75009;SDS011;63564;46.840;18.336;2023-07-29T03:53:50;8.00;;;4.40;;
75009;SDS011;63564;46.840;18.336;2023-07-29T03:56:50;9.00;;;4.70;;
75009;SDS011;63564;46.840;18.336;2023-07-29T03:59:51;8.37;;;4.77;;
75009;SDS011;63564;46.840;18.336;2023-07-29T04:02:51;7.20;;;4.87;;
75009;SDS011;63564;46.840;18.336;2023-07-29T04:05:51;8.00;;;4.80;;
75009;SDS011;63564;46.840;18.336;2023-07-29T04:08:52;9.23;;;4.80;;
75009;SDS011;63564;46.840;18.336;2023-07-29T04:11:52;7.50;;;4.70;;
75009;SDS011;63564;46.840;18.336;2023-07-29T04:14:53;7.73;;;5.00;;
75009;SDS011;63564;46.840;18.336;2023-07-29T04:17:53;9.10;;;5.30;;
75009;SDS011;63564;46.840;18.336;2023-07-29T04:20:53;8.40;;;5.10;;
75009;SDS011;63564;46.840;18.336;2023-07-29T04:23:54;7.83;;;4.80;;
75009;SDS011;63564;46.840;18.336;2023-07-29T04:26:54;7.90;;;5.13;;
75009;SDS011;63564;46.840;18.336;2023-07-29T04:29:54;9.27;;;5.70;;
75009;SDS011;63564;46.840;18.336;2023-07-29T04:32:55;8.00;;;5.50;;
75009;SDS011;63564;46.840;18.336;2023-07-29T04:35:55;7.33;;;4.80;;
75009;SDS011;63564;46.840;18.336;2023-07-29T04:38:56;8.68;;;5.18;;
75009;SDS011;63564;46.840;18.336;2023-07-29T04:41:56;7.23;;;4.33;;
75009;SDS011;63564;46.840;18.336;2023-07-29T04:44:57;10.50;;;5.07;;
75009;SDS011;63564;46.840;18.336;2023-07-29T04:47:57;8.23;;;4.85;;
75009;SDS011;63564;46.840;18.336;2023-07-29T04:50:58;10.30;;;5.00;;
75009;SDS011;63564;46.840;18.336;2023-07-29T04:53:58;8.73;;;4.90;;
75009;SDS011;63564;46.840;18.336;2023-07-29T04:56:59;7.17;;;4.53;;
75009;SDS011;63564;46.840;18.336;2023-07-29T04:59:59;8.37;;;5.20;;
75009;SDS011;63564;46.840;18.336;2023-07-29T05:02:59;10.20;;;5.80;;
75009;SDS011;63564;46.840;18.336;2023-07-29T05:06:01;8.50;;;5.07;;
75009;SDS011;63564;46.840;18.336;2023-07-29T05:09:17;8.20;;;5.38;;
75009;SDS011;63564;46.840;18.336;2023-07-29T05:12:18;9.25;;;5.43;;
75009;SDS011;63564;46.840;18.336;2023-07-29T05:15:19;10.00;;;5.10;;
75009;SDS011;63564;46.840;18.336;2023-07-29T05:18:20;8.32;;;4.93;;
75009;SDS011;63564;46.840;18.336;2023-07-29T05:21:20;7.27;;;4.80;;
75009;SDS011;63564;46.840;18.336;2023-07-29T05:24:20;8.20;;;4.90;;
75009;SDS011;63564;46.840;18.336;2023-07-29T05:27:21;8.67;;;4.93;;
75009;SDS011;63564;46.840;18.336;2023-07-29T05:30:21;8.23;;;5.00;;
75009;SDS011;63564;46.840;18.336;2023-07-29T05:33:22;8.57;;;5.43;;
75009;SDS011;63564;46.840;18.336;2023-07-29T05:36:22;7.60;;;5.03;;
75009;SDS011;63564;46.840;18.336;2023-07-29T05:39:22;8.07;;;4.63;;
75009;SDS011;63564;46.840;18.336;2023-07-29T05:42:24;9.02;;;4.70;;
75009;SDS011;63564;46.840;18.336;2023-07-29T05:45:24;7.97;;;4.70;;
75009;SDS011;63564;46.840;18.336;2023-07-29T05:48:25;7.67;;;5.00;;
75009;SDS011;63564;46.840;18.336;2023-07-29T05:51:25;8.30;;;4.60;;
75009;SDS011;63564;46.840;18.336;2023-07-29T05:54:25;8.82;;;4.72;;
75009;SDS011;63564;46.840;18.336;2023-07-29T05:57:26;9.30;;;5.07;;
75009;SDS011;63564;46.840;18.336;2023-07-29T06:00:27;9.00;;;5.00;;
75009;SDS011;63564;46.840;18.336;2023-07-29T06:03:27;8.03;;;4.97;;
75009;SDS011;63564;46.840;18.336;2023-07-29T06:06:27;8.70;;;5.53;;
75009;SDS011;63564;46.840;18.336;2023-07-29T06:09:28;9.77;;;5.73;;
75009;SDS011;63564;46.840;18.336;2023-07-29T06:12:28;9.87;;;5.70;;
75009;SDS011;63564;46.840;18.336;2023-07-29T06:15:28;8.77;;;5.70;;
75009;SDS011;63564;46.840;18.336;2023-07-29T06:18:29;9.50;;;6.27;;
75009;SDS011;63564;46.840;18.336;2023-07-29T06:21:29;8.77;;;5.60;;
75009;SDS011;63564;46.840;18.336;2023-07-29T06:24:30;9.37;;;5.87;;
75009;SDS011;63564;46.840;18.336;2023-07-29T06:27:30;8.70;;;5.60;;
75009;SDS011;63564;46.840;18.336;2023-07-29T06:30:30;8.97;;;5.67;;
75009;SDS011;63564;46.840;18.336;2023-07-29T06:33:31;10.20;;;5.40;;
75009;SDS011;63564;46.840;18.336;2023-07-29T06:36:32;7.37;;;4.77;;
75009;SDS011;63564;46.840;18.336;2023-07-29T06:39:32;8.77;;;5.25;;
75009;SDS011;63564;46.840;18.336;2023-07-29T06:42:32;8.87;;;5.20;;
75009;SDS011;63564;46.840;18.336;2023-07-29T06:45:33;9.17;;;4.90;;
75009;SDS011;63564;46.840;18.336;2023-07-29T06:48:33;9.80;;;4.90;;
75009;SDS011;63564;46.840;18.336;2023-07-29T06:51:34;9.27;;;4.60;;
75009;SDS011;63564;46.840;18.336;2023-07-29T06:54:34;7.13;;;4.20;;
75009;SDS011;63564;46.840;18.336;2023-07-29T06:57:35;6.17;;;3.83;;
75009;SDS011;63564;46.840;18.336;2023-07-29T07:00:35;7.70;;;3.97;;
75009;SDS011;63564;46.840;18.336;2023-07-29T07:03:35;7.50;;;4.07;;
75009;SDS011;63564;46.840;18.336;2023-07-29T07:06:36;7.40;;;4.20;;
75009;SDS011;63564;46.840;18.336;2023-07-29T07:09:36;9.37;;;4.40;;
75009;SDS011;63564;46.840;18.336;2023-07-29T07:12:36;6.83;;;4.00;;
75009;SDS011;63564;46.840;18.336;2023-07-29T07:15:37;7.57;;;4.10;;
75009;SDS011;63564;46.840;18.336;2023-07-29T07:18:37;7.47;;;4.10;;
75009;SDS011;63564;46.840;18.336;2023-07-29T07:21:38;5.97;;;3.67;;
75009;SDS011;63564;46.840;18.336;2023-07-29T07:24:38;6.80;;;3.97;;
75009;SDS011;63564;46.840;18.336;2023-07-29T07:27:38;6.37;;;3.93;;
75009;SDS011;63564;46.840;18.336;2023-07-29T07:30:39;7.50;;;4.00;;
75009;SDS011;63564;46.840;18.336;2023-07-29T07:33:43;7.53;;;4.20;;
75009;SDS011;63564;46.840;18.336;2023-07-29T07:36:44;6.55;;;3.90;;
75009;SDS011;63564;46.840;18.336;2023-07-29T07:39:44;9.13;;;4.00;;
75009;SDS011;63564;46.840;18.336;2023-07-29T07:42:45;6.93;;;3.83;;
75009;SDS011;63564;46.840;18.336;2023-07-29T07:45:45;6.47;;;3.60;;
75009;SDS011;63564;46.840;18.336;2023-07-29T07:48:45;6.23;;;3.67;;
75009;SDS011;63564;46.840;18.336;2023-07-29T07:51:46;6.80;;;4.00;;
75009;SDS011;63564;46.840;18.336;2023-07-29T07:54:51;5.50;;;3.50;;
75009;SDS011;63564;46.840;18.336;2023-07-29T07:57:54;7.07;;;3.95;;
75009;SDS011;63564;46.840;18.336;2023-07-29T08:01:01;6.10;;;3.53;;
75009;SDS011;63564;46.840;18.336;2023-07-29T08:04:06;5.90;;;3.40;;
75009;SDS011;63564;46.840;18.336;2023-07-29T08:07:07;7.00;;;3.60;;
75009;SDS011;63564;46.840;18.336;2023-07-29T08:10:07;6.33;;;3.73;;
75009;SDS011;63564;46.840;18.336;2023-07-29T08:13:08;5.97;;;3.20;;
75009;SDS011;63564;46.840;18.336;2023-07-29T08:16:08;7.47;;;3.20;;
75009;SDS011;63564;46.840;18.336;2023-07-29T08:19:08;7.10;;;3.30;;
75009;SDS011;63564;46.840;18.336;2023-07-29T08:22:09;5.93;;;3.20;;
75009;SDS011;63564;46.840;18.336;2023-07-29T08:25:10;6.00;;;3.10;;
75009;SDS011;63564;46.840;18.336;2023-07-29T08:28:10;5.70;;;3.07;;
75009;SDS011;63564;46.840;18.336;2023-07-29T08:31:11;6.03;;;3.00;;
75009;SDS011;63564;46.840;18.336;2023-07-29T08:34:11;6.87;;;2.93;;
75009;SDS011;63564;46.840;18.336;2023-07-29T08:37:12;6.67;;;3.30;;
75009;SDS011;63564;46.840;18.336;2023-07-29T08:40:13;5.88;;;2.72;;
75009;SDS011;63564;46.840;18.336;2023-07-29T08:43:14;5.93;;;3.20;;
75009;SDS011;63564;46.840;18.336;2023-07-29T08:46:16;6.43;;;3.10;;
75009;SDS011;63564;46.840;18.336;2023-07-29T08:49:18;5.88;;;3.40;;
75009;SDS011;63564;46.840;18.336;2023-07-29T08:52:19;9.88;;;3.20;;
75009;SDS011;63564;46.840;18.336;2023-07-29T08:55:20;7.43;;;3.30;;
75009;SDS011;63564;46.840;18.336;2023-07-29T08:58:21;5.28;;;3.08;;
75009;SDS011;63564;46.840;18.336;2023-07-29T09:01:23;5.95;;;3.08;;
75009;SDS011;63564;46.840;18.336;2023-07-29T09:04:23;5.57;;;2.87;;
75009;SDS011;63564;46.840;18.336;2023-07-29T09:07:25;5.80;;;3.05;;
75009;SDS011;63564;46.840;18.336;2023-07-29T09:10:26;6.28;;;2.92;;
75009;SDS011;63564;46.840;18.336;2023-07-29T09:13:26;6.20;;;3.17;;
75009;SDS011;63564;46.840;18.336;2023-07-29T09:16:27;5.50;;;2.90;;
75009;SDS011;63564;46.840;18.336;2023-07-29T09:19:27;5.53;;;3.10;;
75009;SDS011;63564;46.840;18.336;2023-07-29T09:22:28;6.37;;;3.00;;
75009;SDS011;63564;46.840;18.336;2023-07-29T09:25:29;5.53;;;3.10;;
75009;SDS011;63564;46.840;18.336;2023-07-29T09:28:32;5.85;;;3.20;;
75009;SDS011;63564;46.840;18.336;2023-07-29T09:31:34;4.82;;;2.65;;
75009;SDS011;63564;46.840;18.336;2023-07-29T09:34:37;6.40;;;3.10;;
75009;SDS011;63564;46.840;18.336;2023-07-29T09:37:41;7.47;;;3.08;;
75009;SDS011;63564;46.840;18.336;2023-07-29T09:40:43;5.53;;;3.00;;
75009;SDS011;63564;46.840;18.336;2023-07-29T09:43:45;6.17;;;3.37;;
75009;SDS011;63564;46.840;18.336;2023-07-29T09:46:45;6.45;;;3.30;;
75009;SDS011;63564;46.840;18.336;2023-07-29T09:49:47;5.40;;;2.90;;
75009;SDS011;63564;46.840;18.336;2023-07-29T09:52:47;6.57;;;2.75;;
75009;SDS011;63564;46.840;18.336;2023-07-29T09:55:48;5.47;;;2.70;;
75009;SDS011;63564;46.840;18.336;2023-07-29T09:58:50;6.60;;;2.85;;
75009;SDS011;63564;46.840;18.336;2023-07-29T10:01:51;7.57;;;3.17;;
75009;SDS011;63564;46.840;18.336;2023-07-29T10:04:51;5.50;;;2.90;;
75009;SDS011;63564;46.840;18.336;2023-07-29T10:07:52;5.47;;;2.87;;
75009;SDS011;63564;46.840;18.336;2023-07-29T10:10:53;4.90;;;2.60;;
75009;SDS011;63564;46.840;18.336;2023-07-29T10:13:54;6.35;;;2.78;;
75009;SDS011;63564;46.840;18.336;2023-07-29T10:16:55;5.13;;;2.77;;
75009;SDS011;63564;46.840;18.336;2023-07-29T10:19:57;5.18;;;2.70;;
75009;SDS011;63564;46.840;18.336;2023-07-29T10:22:59;5.00;;;2.90;;
75009;SDS011;63564;46.840;18.336;2023-07-29T10:26:04;6.97;;;3.30;;
75009;SDS011;63564;46.840;18.336;2023-07-29T10:29:05;6.17;;;3.10;;
75009;SDS011;63564;46.840;18.336;2023-07-29T10:32:10;5.20;;;2.70;;
75009;SDS011;63564;46.840;18.336;2023-07-29T10:35:12;5.82;;;2.75;;
75009;SDS011;63564;46.840;18.336;2023-07-29T10:38:13;5.50;;;2.80;;
75009;SDS011;63564;46.840;18.336;2023-07-29T10:41:14;5.25;;;2.72;;
75009;SDS011;63564;46.840;18.336;2023-07-29T10:47:43;6.82;;;2.92;;
75009;SDS011;63564;46.840;18.336;2023-07-29T10:50:44;5.43;;;2.90;;
75009;SDS011;63564;46.840;18.336;2023-07-29T10:53:44;5.40;;;2.80;;
75009;SDS011;63564;46.840;18.336;2023-07-29T10:56:48;6.67;;;2.90;;
75009;SDS011;63564;46.840;18.336;2023-07-29T10:59:55;6.18;;;3.10;;
75009;SDS011;63564;46.840;18.336;2023-07-29T11:03:03;6.10;;;2.97;;
75009;SDS011;63564;46.840;18.336;2023-07-29T11:06:06;6.43;;;2.95;;
75009;SDS011;63564;46.840;18.336;2023-07-29T11:09:38;7.10;;;3.00;;
75009;SDS011;63564;46.840;18.336;2023-07-29T11:15:54;6.90;;;3.53;;
75009;SDS011;63564;46.840;18.336;2023-07-29T11:18:56;5.13;;;2.73;;
75009;SDS011;63564;46.840;18.336;2023-07-29T11:22:00;5.18;;;2.60;;
75009;SDS011;63564;46.840;18.336;2023-07-29T11:25:00;5.90;;;2.70;;
75009;SDS011;63564;46.840;18.336;2023-07-29T11:28:01;5.25;;;2.67;;
75009;SDS011;63564;46.840;18.336;2023-07-29T11:31:01;5.33;;;2.63;;
75009;SDS011;63564;46.840;18.336;2023-07-29T11:34:06;5.30;;;2.83;;
75009;SDS011;63564;46.840;18.336;2023-07-29T11:37:07;5.53;;;2.70;;
75009;SDS011;63564;46.840;18.336;2023-07-29T11:40:13;5.25;;;2.50;;
75009;SDS011;63564;46.840;18.336;2023-07-29T11:43:17;4.73;;;2.57;;
75009;SDS011;63564;46.840;18.336;2023-07-29T11:46:20;6.10;;;2.73;;
75009;SDS011;63564;46.840;18.336;2023-07-29T11:49:22;6.28;;;2.88;;
75009;SDS011;63564;46.840;18.336;2023-07-29T11:52:22;6.07;;;2.50;;
75009;SDS011;63564;46.840;18.336;2023-07-29T11:55:24;5.38;;;2.80;;
75009;SDS011;63564;46.840;18.336;2023-07-29T11:58:24;5.43;;;2.70;;
75009;SDS011;63564;46.840;18.336;2023-07-29T12:01:25;5.40;;;2.67;;
75009;SDS011;63564;46.840;18.336;2023-07-29T12:04:26;5.57;;;2.60;;
75009;SDS011;63564;46.840;18.336;2023-07-29T12:07:26;5.53;;;2.88;;
75009;SDS011;63564;46.840;18.336;2023-07-29T12:10:27;6.13;;;2.90;;
75009;SDS011;63564;46.840;18.336;2023-07-29T12:13:28;5.17;;;2.80;;
75009;SDS011;63564;46.840;18.336;2023-07-29T12:16:28;7.13;;;2.58;;
75009;SDS011;63564;46.840;18.336;2023-07-29T12:19:37;5.67;;;2.70;;
75009;SDS011;63564;46.840;18.336;2023-07-29T12:22:39;6.32;;;2.80;;
75009;SDS011;63564;46.840;18.336;2023-07-29T12:25:40;5.72;;;2.72;;
75009;SDS011;63564;46.840;18.336;2023-07-29T12:28:44;9.07;;;4.43;;
75009;SDS011;63564;46.840;18.336;2023-07-29T12:31:46;6.57;;;2.93;;
75009;SDS011;63564;46.840;18.336;2023-07-29T12:34:46;7.07;;;2.90;;
75009;SDS011;63564;46.840;18.336;2023-07-29T12:37:46;6.13;;;2.60;;
75009;SDS011;63564;46.840;18.336;2023-07-29T12:40:47;4.57;;;2.10;;
75009;SDS011;63564;46.840;18.336;2023-07-29T12:43:47;5.60;;;2.37;;
75009;SDS011;63564;46.840;18.336;2023-07-29T12:46:47;5.60;;;2.50;;
75009;SDS011;63564;46.840;18.336;2023-07-29T12:49:48;4.90;;;2.40;;
75009;SDS011;63564;46.840;18.336;2023-07-29T12:52:48;5.00;;;2.40;;
75009;SDS011;63564;46.840;18.336;2023-07-29T12:55:49;6.35;;;2.30;;
75009;SDS011;63564;46.840;18.336;2023-07-29T12:58:49;4.07;;;2.23;;
75009;SDS011;63564;46.840;18.336;2023-07-29T13:01:49;5.37;;;2.50;;
75009;SDS011;63564;46.840;18.336;2023-07-29T13:04:50;5.63;;;2.40;;
75009;SDS011;63564;46.840;18.336;2023-07-29T13:07:50;5.40;;;2.40;;
75009;SDS011;63564;46.840;18.336;2023-07-29T13:10:50;4.63;;;2.40;;
75009;SDS011;63564;46.840;18.336;2023-07-29T13:13:51;5.03;;;2.50;;
75009;SDS011;63564;46.840;18.336;2023-07-29T13:16:51;4.97;;;2.55;;
75009;SDS011;63564;46.840;18.336;2023-07-29T13:19:52;4.83;;;2.20;;
75009;SDS011;63564;46.840;18.336;2023-07-29T13:22:52;5.87;;;2.50;;
75009;SDS011;63564;46.840;18.336;2023-07-29T13:25:52;4.53;;;2.67;;
75009;SDS011;63564;46.840;18.336;2023-07-29T13:28:53;5.77;;;2.90;;
75009;SDS011;63564;46.840;18.336;2023-07-29T13:31:55;6.10;;;2.75;;
75009;SDS011;63564;46.840;18.336;2023-07-29T13:34:55;5.20;;;2.70;;
75009;SDS011;63564;46.840;18.336;2023-07-29T13:37:55;5.40;;;2.80;;
75009;SDS011;63564;46.840;18.336;2023-07-29T13:40:56;5.03;;;2.73;;
75009;SDS011;63564;46.840;18.336;2023-07-29T13:43:56;5.22;;;2.60;;
75009;SDS011;63564;46.840;18.336;2023-07-29T13:46:57;5.50;;;2.67;;
75009;SDS011;63564;46.840;18.336;2023-07-29T13:49:57;6.23;;;2.70;;
75009;SDS011;63564;46.840;18.336;2023-07-29T13:52:57;6.00;;;2.50;;
75009;SDS011;63564;46.840;18.336;2023-07-29T13:55:58;5.07;;;2.20;;
75009;SDS011;63564;46.840;18.336;2023-07-29T13:58:58;4.77;;;2.40;;
75009;SDS011;63564;46.840;18.336;2023-07-29T14:01:58;4.73;;;2.40;;
75009;SDS011;63564;46.840;18.336;2023-07-29T14:04:59;5.33;;;2.80;;
75009;SDS011;63564;46.840;18.336;2023-07-29T14:07:59;6.85;;;2.80;;
75009;SDS011;63564;46.840;18.336;2023-07-29T14:11:00;4.60;;;2.70;;
75009;SDS011;63564;46.840;18.336;2023-07-29T14:14:00;5.10;;;2.70;;
75009;SDS011;63564;46.840;18.336;2023-07-29T14:17:00;7.03;;;2.60;;
75009;SDS011;63564;46.840;18.336;2023-07-29T14:20:01;4.73;;;2.43;;
75009;SDS011;63564;46.840;18.336;2023-07-29T14:23:03;5.65;;;2.60;;
75009;SDS011;63564;46.840;18.336;2023-07-29T14:26:03;5.17;;;3.20;;
75009;SDS011;63564;46.840;18.336;2023-07-29T14:29:03;5.80;;;2.90;;
75009;SDS011;63564;46.840;18.336;2023-07-29T14:32:04;7.43;;;3.07;;
75009;SDS011;63564;46.840;18.336;2023-07-29T14:35:04;5.57;;;3.00;;
75009;SDS011;63564;46.840;18.336;2023-07-29T14:38:05;5.90;;;3.10;;
75009;SDS011;63564;46.840;18.336;2023-07-29T14:41:05;5.65;;;2.72;;
75009;SDS011;63564;46.840;18.336;2023-07-29T14:44:06;6.93;;;2.60;;
75009;SDS011;63564;46.840;18.336;2023-07-29T14:47:07;6.13;;;2.40;;
75009;SDS011;63564;46.840;18.336;2023-07-29T14:50:08;5.30;;;2.50;;
75009;SDS011;63564;46.840;18.336;2023-07-29T14:53:08;6.27;;;2.70;;
75009;SDS011;63564;46.840;18.336;2023-07-29T14:56:09;5.60;;;2.60;;
75009;SDS011;63564;46.840;18.336;2023-07-29T14:59:09;6.23;;;2.60;;
75009;SDS011;63564;46.840;18.336;2023-07-29T15:02:10;4.73;;;2.67;;
75009;SDS011;63564;46.840;18.336;2023-07-29T15:05:10;6.87;;;2.87;;
75009;SDS011;63564;46.840;18.336;2023-07-29T15:08:11;5.30;;;2.80;;
75009;SDS011;63564;46.840;18.336;2023-07-29T15:11:11;6.00;;;2.70;;
75009;SDS011;63564;46.840;18.336;2023-07-29T15:14:11;5.53;;;2.70;;
75009;SDS011;63564;46.840;18.336;2023-07-29T15:17:12;6.93;;;2.60;;
75009;SDS011;63564;46.840;18.336;2023-07-29T15:20:12;5.07;;;2.73;;
75009;SDS011;63564;46.840;18.336;2023-07-29T15:23:12;5.63;;;2.47;;
75009;SDS011;63564;46.840;18.336;2023-07-29T15:26:13;5.63;;;2.77;;
75009;SDS011;63564;46.840;18.336;2023-07-29T15:29:13;7.37;;;2.70;;
75009;SDS011;63564;46.840;18.336;2023-07-29T15:32:13;5.70;;;2.87;;
75009;SDS011;63564;46.840;18.336;2023-07-29T15:35:14;6.20;;;2.90;;
75009;SDS011;63564;46.840;18.336;2023-07-29T15:38:15;7.38;;;2.72;;
75009;SDS011;63564;46.840;18.336;2023-07-29T15:41:15;5.90;;;2.90;;
75009;SDS011;63564;46.840;18.336;2023-07-29T15:44:16;6.28;;;2.60;;
75009;SDS011;63564;46.840;18.336;2023-07-29T15:47:16;6.47;;;2.80;;
75009;SDS011;63564;46.840;18.336;2023-07-29T15:50:18;4.95;;;2.63;;
75009;SDS011;63564;46.840;18.336;2023-07-29T15:53:19;5.47;;;2.57;;
75009;SDS011;63564;46.840;18.336;2023-07-29T15:56:19;5.73;;;2.90;;
75009;SDS011;63564;46.840;18.336;2023-07-29T15:59:20;5.50;;;2.58;;
75009;SDS011;63564;46.840;18.336;2023-07-29T16:02:20;5.93;;;2.80;;
75009;SDS011;63564;46.840;18.336;2023-07-29T16:05:21;5.30;;;2.93;;
75009;SDS011;63564;46.840;18.336;2023-07-29T16:08:21;6.23;;;2.87;;
75009;SDS011;63564;46.840;18.336;2023-07-29T16:11:22;7.33;;;3.73;;
75009;SDS011;63564;46.840;18.336;2023-07-29T16:14:22;9.70;;;4.03;;
75009;SDS011;63564;46.840;18.336;2023-07-29T16:17:23;8.97;;;3.50;;
75009;SDS011;63564;46.840;18.336;2023-07-29T16:20:24;5.90;;;3.40;;
75009;SDS011;63564;46.840;18.336;2023-07-29T16:23:24;6.50;;;3.40;;
75009;SDS011;63564;46.840;18.336;2023-07-29T16:26:25;7.90;;;3.50;;
75009;SDS011;63564;46.840;18.336;2023-07-29T16:29:25;6.80;;;3.33;;
75009;SDS011;63564;46.840;18.336;2023-07-29T16:32:25;6.47;;;3.20;;
75009;SDS011;63564;46.840;18.336;2023-07-29T16:35:26;11.23;;;3.60;;
75009;SDS011;63564;46.840;18.336;2023-07-29T16:38:26;7.03;;;3.13;;
75009;SDS011;63564;46.840;18.336;2023-07-29T16:41:26;6.87;;;3.60;;
75009;SDS011;63564;46.840;18.336;2023-07-29T16:44:27;6.50;;;3.20;;
75009;SDS011;63564;46.840;18.336;2023-07-29T16:47:27;7.13;;;3.23;;
75009;SDS011;63564;46.840;18.336;2023-07-29T16:50:29;6.40;;;3.15;;
75009;SDS011;63564;46.840;18.336;2023-07-29T16:53:29;7.30;;;3.60;;
75009;SDS011;63564;46.840;18.336;2023-07-29T16:56:30;10.63;;;3.50;;
75009;SDS011;63564;46.840;18.336;2023-07-29T16:59:32;6.47;;;3.80;;
75009;SDS011;63564;46.840;18.336;2023-07-29T17:02:32;8.57;;;4.00;;
75009;SDS011;63564;46.840;18.336;2023-07-29T17:05:33;8.57;;;3.78;;
75009;SDS011;63564;46.840;18.336;2023-07-29T17:08:34;6.83;;;3.80;;
75009;SDS011;63564;46.840;18.336;2023-07-29T17:11:34;8.33;;;4.10;;
75009;SDS011;63564;46.840;18.336;2023-07-29T17:14:34;6.80;;;3.40;;
75009;SDS011;63564;46.840;18.336;2023-07-29T17:17:35;8.10;;;3.80;;
75009;SDS011;63564;46.840;18.336;2023-07-29T17:20:35;16.40;;;7.63;;
75009;SDS011;63564;46.840;18.336;2023-07-29T17:23:36;7.63;;;2.50;;
75009;SDS011;63564;46.840;18.336;2023-07-29T17:26:36;6.43;;;1.87;;
75009;SDS011;63564;46.840;18.336;2023-07-29T17:29:36;4.20;;;1.60;;
75009;SDS011;63564;46.840;18.336;2023-07-29T17:32:37;4.18;;;1.85;;
75009;SDS011;63564;46.840;18.336;2023-07-29T17:35:37;6.03;;;2.20;;
75009;SDS011;63564;46.840;18.336;2023-07-29T17:38:41;6.85;;;1.85;;
75009;SDS011;63564;46.840;18.336;2023-07-29T17:41:43;7.67;;;2.30;;
75009;SDS011;63564;46.840;18.336;2023-07-29T17:44:43;6.93;;;2.00;;
75009;SDS011;63564;46.840;18.336;2023-07-29T17:47:44;6.70;;;2.10;;
75009;SDS011;63564;46.840;18.336;2023-07-29T17:50:45;5.20;;;2.27;;
75009;SDS011;63564;46.840;18.336;2023-07-29T17:53:46;15.18;;;7.82;;
75009;SDS011;63564;46.840;18.336;2023-07-29T17:56:47;51.33;;;25.70;;
75009;SDS011;63564;46.840;18.336;2023-07-29T17:59:47;29.73;;;14.30;;
75009;SDS011;63564;46.840;18.336;2023-07-29T18:02:48;26.77;;;11.90;;
75009;SDS011;63564;46.840;18.336;2023-07-29T18:05:48;18.30;;;8.63;;